This is the latest recevied weather packets stored in our database for station/object ED4YAZ-13. If no packets are shown the sender has not sent any weather packets the latest 10 day(s).
| Time | Temp. | Humidity | Pressure | Rain* | Wind** | Luminosity | Snow |
|---|---|---|---|---|---|---|---|
| 1778021552 | 9.44° C | 52% | 1015.1 hPa | - | - | - | - |
| 1778020952 | 9.44° C | 52% | 1015.2 hPa | - | - | - | - |
| 1778020352 | 9.44° C | 53% | 1015.3 hPa | - | - | - | - |
| 1778019752 | 9.44° C | 53% | 1015.3 hPa | - | - | - | - |
| 1778019142 | 10° C | 53% | 1015.3 hPa | - | - | - | - |
| 1778018528 | 10° C | 53% | 1015.2 hPa | - | - | - | - |
| 1778017927 | 10° C | 53% | 1015.2 hPa | - | - | - | - |
| 1778017315 | 10° C | 52% | 1015.1 hPa | - | - | - | - |
| 1778016700 | 10° C | 52% | 1015 hPa | - | - | - | - |
| 1778016100 | 10.56° C | 51% | 1015 hPa | - | - | - | - |
| 1778015500 | 10.56° C | 51% | 1014.9 hPa | - | - | - | - |
| 1778014900 | 10.56° C | 50% | 1015 hPa | - | - | - | - |
| 1778014300 | 10.56° C | 50% | 1014.9 hPa | - | - | - | - |
| 1778013700 | 10.56° C | 50% | 1014.8 hPa | - | - | - | - |
| 1778013100 | 11.11° C | 50% | 1014.8 hPa | - | - | - | - |
| 1778012500 | 11.11° C | 50% | 1014.6 hPa | - | - | - | - |
| 1778011912 | 11.11° C | 49% | 1014.6 hPa | - | - | - | - |
| 1778011900 | 11.11° C | 49% | 1014.6 hPa | - | - | - | - |
| 1778011300 | 11.11° C | 50% | 1014.4 hPa | - | - | - | - |
| 1778010700 | 11.11° C | 49% | 1014.3 hPa | - | - | - | - |
| 1778009600 | 11.67° C | 48% | 1013.8 hPa | - | - | - | - |
| 1778009596 | 11.67° C | 48% | 1013.8 hPa | - | - | - | - |
| 1778008994 | 12.22° C | 47% | 1013.6 hPa | - | - | - | - |
| 1778008394 | 12.78° C | 44% | 1013.2 hPa | - | - | - | - |
| 1778007787 | 14.44° C | 40% | 1012.3 hPa | - | - | - | - |
* Rain since midnight (hover to see other rain measurements)
** Current wind speed in m/s (hover to see current wind gust speed)